createdAt,value
2018-01-12T00:01:38.170Z,25.00
2018-01-12T00:04:05.684Z,25.50
2018-01-12T00:06:33.172Z,24.10
2018-01-12T00:09:00.648Z,25.83
2018-01-12T00:11:28.226Z,25.87
2018-01-12T00:13:55.730Z,26.03
2018-01-12T00:16:23.208Z,28.23
2018-01-12T00:18:52.117Z,26.93
2018-01-12T00:21:19.716Z,24.73
2018-01-12T00:23:47.180Z,23.23
2018-01-12T00:26:15.013Z,24.43
2018-01-12T00:28:42.573Z,24.40
2018-01-12T00:31:10.044Z,23.30
2018-01-12T00:33:37.556Z,25.27
2018-01-12T00:36:05.910Z,24.90
2018-01-12T00:38:33.946Z,26.77
2018-01-12T00:41:01.455Z,24.73
2018-01-12T00:43:28.941Z,25.13
2018-01-12T00:45:56.473Z,26.30
2018-01-12T00:48:23.966Z,24.60
2018-01-12T00:50:51.431Z,24.97
2018-01-12T00:53:18.920Z,24.00
2018-01-12T00:55:46.423Z,24.80
2018-01-12T00:58:14.086Z,25.80
2018-01-12T01:00:41.563Z,23.83
2018-01-12T01:03:09.263Z,24.23
2018-01-12T01:05:36.759Z,25.80
2018-01-12T01:08:04.233Z,24.37
2018-01-12T01:10:31.690Z,24.50
2018-01-12T01:12:59.165Z,23.80
2018-01-12T01:15:27.968Z,22.90
2018-01-12T01:17:55.500Z,22.67
2018-01-12T01:20:22.959Z,23.73
2018-01-12T01:22:50.420Z,22.73
2018-01-12T01:25:17.872Z,23.40
2018-01-12T01:27:45.330Z,24.00
2018-01-12T01:30:12.775Z,24.00
2018-01-12T01:32:40.304Z,23.70
2018-01-12T01:35:07.757Z,23.17
2018-01-12T01:37:35.227Z,23.33
2018-01-12T01:40:02.768Z,22.47
2018-01-12T01:42:30.386Z,24.87
2018-01-12T01:44:57.850Z,23.90
2018-01-12T01:47:25.340Z,23.53
2018-01-12T01:49:52.823Z,21.50
2018-01-12T01:52:20.271Z,22.20
2018-01-12T01:54:48.207Z,22.43
2018-01-12T01:57:15.972Z,23.43
2018-01-12T01:59:43.444Z,22.90
2018-01-12T02:02:10.927Z,23.37
2018-01-12T02:04:38.520Z,21.70
2018-01-12T02:07:06.006Z,21.37
2018-01-12T02:09:33.475Z,23.53
2018-01-12T02:12:00.956Z,22.80
2018-01-12T02:14:28.443Z,23.23
2018-01-12T02:16:55.897Z,21.43
2018-01-12T02:19:23.366Z,23.00
2018-01-12T02:21:50.836Z,22.30
2018-01-12T02:24:18.323Z,20.77
2018-01-12T02:26:45.827Z,21.20
2018-01-12T02:29:13.281Z,20.33
2018-01-12T02:31:40.752Z,19.40
2018-01-12T02:34:08.323Z,21.20
2018-01-12T02:36:35.800Z,19.40
2018-01-12T02:39:03.296Z,20.40
2018-01-12T02:41:30.782Z,20.70
2018-01-12T02:43:58.265Z,20.90
2018-01-12T02:46:25.712Z,21.67
2018-01-12T02:48:53.170Z,21.77
2018-01-12T02:51:20.819Z,22.67
2018-01-12T02:53:48.270Z,22.10
2018-01-12T02:56:15.991Z,21.93
2018-01-12T02:58:43.500Z,21.50
2018-01-12T03:01:10.979Z,21.77
2018-01-12T03:03:38.438Z,21.70
2018-01-12T03:06:05.903Z,21.10
2018-01-12T03:08:33.968Z,22.10
2018-01-12T03:11:01.491Z,21.37
2018-01-12T03:13:28.944Z,19.90
2018-01-12T03:15:56.422Z,20.87
2018-01-12T03:18:23.881Z,22.43
2018-01-12T03:20:51.347Z,21.83
2018-01-12T03:23:18.804Z,23.40
2018-01-12T03:25:46.275Z,22.20
2018-01-12T03:28:13.759Z,21.10
2018-01-12T03:30:41.313Z,22.20
2018-01-12T03:33:08.778Z,23.43
2018-01-12T03:35:36.283Z,22.80
2018-01-12T03:38:03.748Z,22.13
2018-01-12T03:40:31.274Z,22.80
2018-01-12T03:42:58.784Z,21.80
2018-01-12T03:45:26.276Z,23.07
2018-01-12T03:47:53.731Z,24.67
2018-01-12T03:50:21.207Z,23.53
2018-01-12T03:52:48.670Z,23.23
2018-01-12T03:55:16.168Z,24.80
2018-01-12T03:57:43.622Z,24.10
2018-01-12T04:00:11.095Z,24.40
2018-01-12T04:02:38.627Z,25.00
2018-01-12T04:05:06.100Z,24.30
2018-01-12T04:07:33.832Z,24.97
2018-01-12T04:10:01.291Z,24.10
2018-01-12T04:12:29.640Z,24.47
2018-01-12T04:14:57.164Z,23.90
2018-01-12T04:17:24.627Z,24.50
2018-01-12T04:19:52.088Z,24.37
2018-01-12T04:22:19.901Z,23.50
2018-01-12T04:24:47.620Z,24.53
2018-01-12T04:27:15.216Z,22.40
2018-01-12T04:29:42.705Z,22.77
2018-01-12T04:32:10.216Z,22.57
2018-01-12T04:34:37.780Z,23.40
2018-01-12T04:37:05.241Z,23.73
2018-01-12T04:39:33.583Z,26.07
2018-01-12T04:42:01.092Z,23.97
2018-01-12T04:44:28.554Z,23.40
2018-01-12T04:46:56.018Z,19.90
2018-01-12T04:49:23.585Z,22.43
2018-01-12T04:51:51.020Z,21.53
2018-01-12T04:54:18.498Z,22.10
2018-01-12T04:56:46.042Z,22.50
2018-01-12T04:59:13.544Z,21.57
2018-01-12T05:01:41.126Z,21.57
2018-01-12T05:04:08.584Z,20.37
2018-01-12T05:09:13.860Z,20.67
2018-01-12T05:11:41.429Z,21.80
2018-01-12T05:14:13.380Z,20.73
2018-01-12T05:16:41.006Z,21.67
2018-01-12T05:19:10.355Z,20.40
2018-01-12T05:21:38.342Z,20.43
2018-01-12T05:24:07.751Z,20.80
2018-01-12T05:26:36.513Z,20.80
2018-01-12T05:29:05.024Z,22.37
2018-01-12T05:31:32.510Z,19.93
2018-01-12T05:33:59.981Z,22.90
2018-01-12T05:36:27.759Z,21.20
2018-01-12T05:38:55.273Z,19.60
2018-01-12T05:41:22.710Z,20.33
2018-01-12T05:43:50.165Z,20.17
2018-01-12T05:46:17.786Z,27.50
2018-01-12T05:48:45.335Z,25.47
2018-01-12T05:51:12.831Z,25.60
2018-01-12T05:53:40.299Z,34.60
2018-01-12T05:56:07.802Z,31.03
2018-01-12T05:58:35.284Z,27.00
2018-01-12T06:01:14.546Z,24.40
2018-01-12T06:03:53.842Z,24.47
2018-01-12T06:06:22.329Z,23.43
2018-01-12T06:08:49.820Z,22.57
2018-01-12T06:11:17.288Z,21.50
2018-01-12T06:13:44.758Z,21.40
2018-01-12T06:16:12.223Z,21.10
2018-01-12T06:18:39.719Z,21.80
2018-01-12T06:21:07.205Z,22.70
2018-01-12T06:23:34.686Z,23.33
2018-01-12T06:26:02.180Z,22.37
2018-01-12T06:28:29.891Z,22.80
2018-01-12T06:30:57.434Z,22.30
2018-01-12T06:33:24.912Z,23.93
2018-01-12T06:35:52.413Z,23.70
2018-01-12T06:38:19.919Z,22.30
2018-01-12T06:40:47.391Z,22.73
2018-01-12T06:43:14.850Z,23.40
2018-01-12T06:45:42.315Z,22.93
2018-01-12T06:48:09.821Z,22.27
2018-01-12T06:50:38.615Z,23.40
2018-01-12T06:53:06.066Z,22.20
2018-01-12T06:55:33.632Z,25.27
2018-01-12T06:58:01.118Z,23.67
2018-01-12T07:00:28.925Z,24.83
2018-01-12T07:02:56.420Z,24.70
2018-01-12T07:05:23.892Z,24.50
2018-01-12T07:07:51.348Z,23.47
2018-01-12T07:10:18.811Z,25.00
2018-01-12T07:12:46.455Z,23.90
2018-01-12T07:15:13.992Z,24.93
2018-01-12T07:17:41.470Z,23.47
2018-01-12T07:20:20.571Z,24.77
2018-01-12T07:22:59.887Z,22.53
2018-01-12T07:25:27.329Z,23.80
2018-01-12T07:27:54.828Z,24.93
2018-01-12T07:30:22.311Z,25.37
2018-01-12T07:32:49.819Z,25.43
2018-01-12T07:35:17.319Z,26.90
2018-01-12T07:37:44.805Z,26.23
2018-01-12T07:40:12.259Z,23.80
2018-01-12T07:42:39.714Z,26.60
2018-01-12T07:45:07.235Z,24.20
2018-01-12T07:47:34.718Z,26.70
2018-01-12T07:50:02.346Z,25.10
2018-01-12T07:52:29.830Z,25.53
2018-01-12T07:54:57.387Z,26.23
2018-01-12T07:57:25.481Z,25.20
2018-01-12T07:59:52.995Z,25.00
2018-01-12T08:02:26.233Z,25.57
2018-01-12T08:04:53.722Z,25.33
2018-01-12T08:07:21.210Z,24.97
2018-01-12T08:09:48.693Z,25.90
2018-01-12T08:12:16.163Z,24.70
2018-01-12T08:14:43.623Z,23.53
2018-01-12T08:17:11.576Z,24.80
2018-01-12T08:19:39.142Z,24.77
2018-01-12T08:22:06.823Z,22.70
2018-01-12T08:24:34.971Z,24.77
2018-01-12T08:27:05.624Z,25.70
2018-01-12T08:29:33.135Z,22.80
2018-01-12T08:32:00.688Z,25.30
2018-01-12T08:34:28.152Z,25.53
2018-01-12T08:36:55.638Z,23.27
2018-01-12T08:39:23.108Z,24.50
2018-01-12T08:41:50.588Z,23.83
2018-01-12T08:44:18.185Z,21.67
2018-01-12T08:46:45.731Z,23.40
2018-01-12T08:49:16.163Z,22.77
2018-01-12T08:51:43.963Z,23.40
2018-01-12T08:54:15.788Z,25.10
2018-01-12T08:56:43.274Z,25.23
2018-01-12T08:59:11.903Z,23.40
2018-01-12T09:01:40.035Z,24.07
2018-01-12T09:04:07.552Z,22.60
2018-01-12T09:06:35.330Z,25.00
2018-01-12T09:09:02.849Z,23.53
2018-01-12T09:11:30.386Z,24.70
2018-01-12T09:13:58.608Z,22.70
2018-01-12T09:16:39.725Z,24.23
2018-01-12T09:19:19.149Z,22.77
2018-01-12T09:21:47.709Z,23.17
2018-01-12T09:24:23.064Z,23.90
2018-01-12T09:26:50.550Z,23.50
2018-01-12T09:29:18.035Z,23.30
2018-01-12T09:31:45.527Z,24.83
2018-01-12T09:34:24.927Z,23.80
2018-01-12T09:36:52.724Z,24.33
2018-01-12T09:39:32.043Z,26.03
2018-01-12T09:41:59.565Z,23.20
2018-01-12T09:44:27.061Z,24.07
2018-01-12T09:49:49.750Z,25.33
2018-01-12T09:52:17.243Z,23.53
2018-01-12T09:54:45.352Z,24.57
2018-01-12T09:57:12.847Z,24.80
2018-01-12T09:59:45.039Z,25.57
2018-01-12T10:02:12.501Z,26.17
2018-01-12T10:04:43.396Z,27.27
2018-01-12T10:07:20.209Z,24.90
2018-01-12T10:09:49.583Z,25.00
2018-01-12T10:12:17.098Z,24.03
2018-01-12T10:14:44.553Z,26.40
2018-01-12T10:17:12.035Z,25.70
2018-01-12T10:22:54.646Z,24.70
2018-01-12T10:25:22.142Z,24.43
2018-01-12T10:27:49.599Z,25.57
2018-01-12T10:33:59.467Z,27.77
2018-01-12T10:36:39.734Z,26.77
2018-01-12T10:39:23.042Z,28.33
2018-01-12T10:42:02.305Z,26.57
2018-01-12T10:44:29.824Z,29.10
2018-01-12T10:47:14.827Z,26.13
2018-01-12T10:50:17.820Z,27.23
2018-01-12T10:52:49.946Z,29.23
2018-01-12T10:55:17.459Z,28.30
2018-01-12T10:57:44.986Z,27.40
2018-01-12T11:00:24.328Z,28.03
2018-01-12T11:02:51.839Z,29.27
2018-01-12T11:05:19.301Z,28.20
2018-01-12T11:07:46.786Z,28.77
2018-01-12T11:10:14.246Z,30.10
2018-01-12T11:12:41.718Z,29.17
2018-01-12T11:15:09.192Z,29.43
2018-01-12T11:17:36.676Z,27.60
2018-01-12T11:20:04.152Z,29.20
2018-01-12T11:22:32.782Z,28.57
2018-01-12T11:25:00.301Z,26.87
2018-01-12T11:27:27.814Z,30.43
2018-01-12T11:29:55.635Z,27.03
2018-01-12T11:32:23.130Z,28.33
2018-01-12T11:34:50.627Z,27.80
2018-01-12T11:37:18.111Z,29.20
2018-01-12T11:39:45.594Z,27.90
2018-01-12T11:42:13.143Z,29.17
2018-01-12T11:44:41.071Z,29.07
2018-01-12T11:47:08.563Z,27.23
2018-01-12T11:49:36.082Z,28.90
2018-01-12T11:52:03.721Z,28.07
2018-01-12T11:54:35.808Z,27.10
2018-01-12T11:57:03.282Z,29.13
2018-01-12T11:59:30.767Z,27.63
2018-01-12T12:01:58.280Z,26.40
2018-01-12T12:04:25.753Z,28.57
2018-01-12T12:06:53.300Z,28.50
2018-01-12T12:09:21.681Z,27.60
2018-01-12T12:11:49.147Z,27.80
2018-01-12T12:14:16.698Z,27.00
2018-01-12T12:16:44.150Z,29.13
2018-01-12T12:19:11.644Z,28.77
2018-01-12T12:21:39.181Z,29.40
2018-01-12T12:24:07.380Z,28.53
2018-01-12T12:26:35.027Z,29.00
2018-01-12T12:29:02.507Z,32.03
2018-01-12T12:31:29.994Z,29.93
2018-01-12T12:33:58.128Z,30.77
2018-01-12T12:36:25.664Z,30.57
2018-01-12T12:38:57.250Z,32.83
2018-01-12T12:54:19.983Z,28.67
2018-01-12T12:56:56.535Z,30.93
2018-01-12T12:59:24.059Z,30.27
2018-01-12T13:01:59.823Z,33.00
2018-01-12T13:04:27.369Z,29.03
2018-01-12T13:06:54.875Z,31.93
2018-01-12T13:09:22.390Z,27.60
2018-01-12T13:11:49.885Z,29.63
2018-01-12T13:14:17.534Z,27.63
2018-01-12T13:16:47.152Z,28.70
2018-01-12T13:19:14.669Z,28.30
2018-01-12T13:21:42.221Z,28.63
2018-01-12T13:24:09.714Z,27.03
2018-01-12T13:26:37.179Z,33.20
2018-01-12T13:29:04.658Z,29.37
2018-01-12T13:31:32.171Z,28.03
2018-01-12T13:33:59.735Z,30.17
2018-01-12T13:36:29.560Z,28.07
2018-01-12T13:38:57.045Z,27.47
2018-01-12T13:41:24.560Z,26.40
2018-01-12T13:43:52.016Z,27.80
2018-01-12T13:46:19.486Z,28.13
2018-01-12T13:48:49.194Z,29.47
2018-01-12T13:51:17.773Z,26.77
2018-01-12T13:53:45.295Z,28.10
2018-01-12T13:56:12.830Z,28.20
2018-01-12T13:58:40.352Z,26.30
2018-01-12T14:01:07.848Z,27.70
2018-01-12T14:03:36.223Z,27.77
2018-01-12T14:06:03.738Z,28.80
2018-01-12T14:08:31.479Z,27.20
2018-01-12T14:10:59.013Z,25.77
2018-01-12T14:13:26.501Z,27.20
2018-01-12T14:15:53.994Z,28.30
2018-01-12T14:18:21.462Z,26.50
2018-01-12T14:20:48.948Z,27.43
2018-01-12T14:23:16.533Z,23.60
2018-01-12T14:25:44.067Z,26.73
2018-01-12T14:28:11.540Z,28.50
2018-01-12T14:30:39.024Z,27.10
2018-01-12T14:33:06.522Z,28.13
2018-01-12T14:35:34.094Z,27.30
2018-01-12T14:38:01.599Z,28.27
2018-01-12T14:40:29.087Z,28.40
2018-01-12T14:42:56.562Z,28.03
2018-01-12T14:45:24.355Z,27.03
2018-01-12T14:47:52.930Z,28.03
2018-01-12T14:50:20.423Z,28.97
2018-01-12T14:52:48.067Z,28.50
2018-01-12T14:55:15.681Z,29.03
2018-01-12T14:57:43.363Z,27.33
2018-01-12T15:00:11.030Z,27.80
2018-01-12T15:02:38.811Z,30.20
2018-01-12T15:05:06.863Z,29.30
2018-01-12T15:07:34.411Z,28.80
2018-01-12T15:10:02.012Z,30.80
2018-01-12T15:12:29.732Z,30.13
2018-01-12T15:14:57.590Z,28.50
2018-01-12T15:17:25.185Z,29.70
2018-01-12T15:19:52.815Z,29.37
2018-01-12T15:22:20.267Z,29.10
2018-01-12T15:24:48.821Z,29.20
2018-01-12T15:27:16.416Z,29.73
2018-01-12T15:29:43.900Z,29.53
2018-01-12T15:32:11.383Z,30.63
2018-01-12T15:34:39.316Z,28.80
2018-01-12T15:37:07.100Z,31.00
2018-01-12T15:39:35.587Z,31.10
2018-01-12T15:42:03.195Z,32.80
2018-01-12T15:44:30.696Z,33.80
2018-01-12T15:49:30.363Z,35.20
2018-01-12T15:51:58.465Z,32.30
2018-01-12T15:54:27.873Z,34.57
2018-01-12T15:56:55.471Z,33.43
2018-01-12T15:59:23.087Z,35.57
2018-01-12T16:01:50.621Z,35.97
2018-01-12T16:04:21.728Z,34.63
2018-01-12T16:06:49.362Z,37.40
2018-01-12T16:09:18.297Z,36.70
2018-01-12T16:11:45.834Z,36.67
2018-01-12T16:14:13.519Z,38.03
2018-01-12T16:16:41.133Z,39.83
2018-01-12T16:19:08.694Z,37.23
2018-01-12T16:21:36.331Z,40.40
2018-01-12T16:24:04.187Z,40.27
2018-01-12T16:26:35.650Z,40.57
2018-01-12T16:29:03.166Z,40.63
2018-01-12T16:31:30.832Z,39.03
2018-01-12T16:33:58.455Z,41.00
2018-01-12T16:36:29.268Z,38.43
2018-01-12T16:38:57.084Z,39.93
2018-01-12T16:41:24.760Z,39.30
2018-01-12T16:43:52.362Z,37.03
2018-01-12T16:46:19.992Z,38.60
2018-01-12T16:48:48.346Z,42.30
2018-01-12T16:51:16.747Z,40.07
2018-01-12T16:53:44.807Z,38.10
2018-01-12T16:56:12.365Z,40.10
2018-01-12T16:58:40.143Z,40.93
2018-01-12T17:01:07.725Z,38.10
2018-01-12T17:03:36.298Z,39.63
2018-01-12T17:06:05.197Z,39.17
2018-01-12T17:08:36.549Z,41.97
2018-01-12T17:11:04.232Z,41.13
2018-01-12T17:13:31.933Z,41.70
2018-01-12T17:15:59.490Z,39.03
2018-01-12T17:18:27.292Z,43.50
2018-01-12T17:20:54.992Z,39.80
2018-01-12T17:23:22.548Z,42.00
2018-01-12T17:25:50.043Z,39.70
2018-01-12T17:28:18.201Z,42.10
2018-01-12T17:30:45.705Z,41.33
2018-01-12T17:33:13.200Z,38.30
2018-01-12T17:35:40.689Z,42.50
2018-01-12T17:38:08.198Z,42.27
2018-01-12T17:40:36.832Z,44.33
2018-01-12T17:43:04.316Z,40.90
2018-01-12T17:45:31.819Z,41.90
2018-01-12T17:47:59.321Z,40.43
2018-01-12T17:50:27.815Z,40.80
2018-01-12T17:52:55.391Z,38.80
2018-01-12T17:55:23.018Z,44.87
2018-01-12T17:57:50.666Z,43.33
2018-01-12T18:00:18.230Z,40.37
2018-01-12T18:02:45.736Z,40.77
2018-01-12T18:05:13.299Z,44.90
2018-01-12T18:07:40.997Z,43.53
2018-01-12T18:10:08.501Z,44.77
2018-01-12T18:12:36.286Z,44.70
2018-01-12T18:15:03.858Z,42.80
2018-01-12T18:17:31.362Z,41.67
2018-01-12T18:19:58.873Z,42.03
2018-01-12T18:22:26.436Z,43.00
2018-01-12T18:24:53.941Z,43.30
2018-01-12T18:27:21.433Z,42.73
2018-01-12T18:29:48.953Z,43.57
2018-01-12T18:32:18.532Z,42.70
2018-01-12T18:34:46.228Z,41.93
2018-01-12T18:37:13.768Z,40.30
2018-01-12T18:39:41.287Z,42.27
2018-01-12T18:42:08.751Z,41.40
2018-01-12T18:44:36.218Z,41.30
2018-01-12T18:47:03.930Z,41.77
2018-01-12T18:49:31.418Z,41.50
2018-01-12T18:51:58.922Z,42.70
2018-01-12T18:54:28.293Z,43.40
2018-01-12T18:56:55.869Z,38.57
2018-01-12T18:59:23.416Z,42.00
2018-01-12T19:01:51.143Z,40.23
2018-01-12T19:04:19.083Z,42.37
2018-01-12T19:06:47.056Z,42.90
2018-01-12T19:09:14.788Z,41.47
2018-01-12T19:11:42.307Z,43.10
2018-01-12T19:14:09.767Z,42.70
2018-01-12T19:16:38.366Z,40.40
2018-01-12T19:32:08.091Z,41.67
2018-01-12T19:34:35.588Z,41.00
2018-01-12T19:37:03.092Z,41.50
2018-01-12T19:39:30.611Z,42.53
2018-01-12T19:41:58.163Z,43.90
2018-01-12T19:44:25.655Z,42.57
2018-01-12T19:46:53.140Z,41.30
2018-01-12T19:49:21.572Z,42.50
2018-01-12T19:51:49.074Z,43.67
2018-01-12T19:54:16.583Z,44.20
2018-01-12T19:56:44.058Z,41.43
2018-01-12T19:59:11.636Z,45.23
2018-01-12T20:01:39.148Z,43.00
2018-01-12T20:04:06.623Z,42.70
2018-01-12T20:06:34.185Z,44.20
2018-01-12T20:09:01.698Z,40.90
2018-01-12T20:11:29.471Z,40.60
2018-01-12T20:13:57.308Z,41.90
2018-01-12T20:16:24.831Z,42.60
2018-01-12T20:18:52.354Z,42.63
2018-01-12T20:21:22.234Z,42.33
2018-01-12T20:23:49.802Z,41.63
2018-01-12T20:26:17.503Z,42.10
2018-01-12T20:28:45.320Z,41.20
2018-01-12T20:31:12.892Z,41.27
2018-01-12T20:33:40.386Z,42.47
2018-01-12T20:36:16.132Z,41.40
2018-01-12T20:38:44.166Z,37.03
2018-01-12T20:41:16.016Z,36.33
2018-01-12T20:43:44.415Z,36.07
2018-01-12T20:46:13.258Z,37.77
2018-01-12T20:48:40.780Z,36.23
2018-01-12T20:51:08.275Z,34.30
2018-01-12T20:53:35.788Z,33.50
2018-01-12T20:56:03.326Z,33.77
2018-01-12T20:58:30.883Z,32.10
2018-01-12T21:00:58.385Z,37.30
2018-01-12T21:03:25.959Z,36.07
2018-01-12T21:05:54.356Z,34.60
2018-01-12T21:08:21.921Z,33.00
2018-01-12T21:10:49.471Z,35.77
2018-01-12T21:15:50.660Z,35.70
2018-01-12T21:18:18.281Z,33.40
2018-01-12T21:20:46.183Z,35.67
2018-01-12T21:23:14.600Z,36.00
2018-01-12T21:25:42.096Z,34.13
2018-01-12T21:28:09.615Z,36.40
2018-01-12T21:30:37.213Z,35.00
2018-01-12T21:33:04.833Z,34.23
2018-01-12T21:35:32.312Z,37.73
2018-01-12T21:38:00.160Z,35.33
2018-01-12T21:40:27.640Z,35.60
2018-01-12T21:42:55.129Z,33.17
2018-01-12T21:45:22.602Z,34.53
2018-01-12T21:47:51.116Z,34.50
2018-01-12T21:50:19.358Z,36.93
2018-01-12T21:52:47.028Z,33.63
2018-01-12T21:55:15.412Z,34.30
2018-01-12T21:57:43.031Z,34.00
2018-01-12T22:00:11.671Z,36.30
2018-01-12T22:02:41.819Z,36.87
2018-01-12T22:05:09.416Z,36.83
2018-01-12T22:07:37.379Z,37.27
2018-01-12T22:10:05.813Z,35.40
2018-01-12T22:12:34.323Z,37.27
2018-01-12T22:15:01.972Z,36.53
2018-01-12T22:17:29.593Z,36.30
2018-01-12T22:19:59.194Z,36.97
2018-01-12T22:22:27.236Z,35.73
2018-01-12T22:24:57.051Z,36.00
2018-01-12T22:27:24.967Z,35.87
2018-01-12T22:29:58.495Z,37.70
2018-01-12T22:32:28.074Z,39.33
2018-01-12T22:48:10.118Z,36.10
2018-01-12T22:50:40.304Z,40.00
2018-01-12T22:53:08.083Z,39.63
2018-01-12T22:55:36.904Z,37.23
2018-01-12T22:58:07.042Z,38.53
2018-01-12T23:00:39.197Z,37.07
2018-01-12T23:03:07.648Z,38.63
2018-01-12T23:05:35.480Z,40.63
2018-01-12T23:08:03.088Z,40.17
2018-01-12T23:10:31.286Z,38.90
2018-01-12T23:12:59.515Z,38.63
2018-01-12T23:15:27.793Z,39.10
2018-01-12T23:17:56.964Z,41.40
2018-01-12T23:20:25.650Z,40.50
2018-01-12T23:22:53.818Z,40.40
2018-01-12T23:25:22.310Z,38.90
2018-01-12T23:27:49.883Z,40.60
2018-01-12T23:30:17.342Z,39.20
2018-01-12T23:32:44.798Z,43.23
2018-01-12T23:35:12.287Z,41.70
2018-01-12T23:37:39.742Z,40.07
2018-01-12T23:40:07.254Z,42.43
2018-01-12T23:42:34.724Z,41.73
2018-01-12T23:45:02.201Z,38.87
2018-01-12T23:47:29.655Z,40.50
2018-01-12T23:49:57.135Z,41.40
2018-01-12T23:52:24.701Z,36.53
2018-01-12T23:54:52.151Z,42.80
2018-01-12T23:57:19.622Z,38.30
2018-01-12T23:59:47.133Z,39.67
